Time;durP1;ratioP1;P1;durP2;ratioP2;P2;SDS_P1;SDS_P2;PMS_P1;PMS_P2;Temp;Humidity;BMP_temperature;BMP_pressure;BME280_temperature;BME280_humidity;BME280_pressure;Samples;Min_cycle;Max_cycle;Signal;HPM_P1;HPM_P2
2022/10/23 00:01:34;;;;;;;15.90;10.25;;;12.80;99.90;;;;;;5056231;28;20032;-82
2022/10/23 00:04:06;;;;;;;16.45;10.13;;;12.80;99.90;;;;;;5055773;28;20524;-83
2022/10/23 00:06:33;;;;;;;10.52;9.27;;;12.80;99.90;;;;;;5056677;28;20036;-82
2022/10/23 00:08:59;;;;;;;14.73;9.52;;;12.80;99.90;;;;;;5057684;28;20048;-84
2022/10/23 00:11:27;;;;;;;10.98;9.20;;;12.80;99.90;;;;;;5056962;28;20025;-82
2022/10/23 00:13:54;;;;;;;22.80;10.02;;;12.80;99.90;;;;;;5057708;28;20029;-82
2022/10/23 00:16:20;;;;;;;20.92;10.27;;;12.80;99.90;;;;;;5060420;28;20477;-83
2022/10/23 00:18:46;;;;;;;18.42;10.80;;;12.80;99.90;;;;;;5059943;28;20051;-83
2022/10/23 00:21:13;;;;;;;19.75;10.95;;;12.90;99.90;;;;;;5068558;28;20037;-82
2022/10/23 00:23:39;;;;;;;11.65;9.80;;;12.80;99.90;;;;;;5078219;28;20036;-83
2022/10/23 00:26:05;;;;;;;14.95;10.13;;;12.90;99.90;;;;;;5079300;28;20023;-82
2022/10/23 00:28:30;;;;;;;17.35;9.45;;;12.80;99.90;;;;;;5080098;28;20013;-83
2022/10/23 00:30:56;;;;;;;15.45;9.63;;;12.80;99.90;;;;;;5079288;28;20080;-83
2022/10/23 00:33:21;;;;;;;19.13;9.95;;;12.90;99.90;;;;;;5077438;28;20025;-83
2022/10/23 00:35:47;;;;;;;15.70;9.85;;;12.90;99.90;;;;;;5061105;28;20022;-83
2022/10/23 00:38:14;;;;;;;11.82;8.45;;;12.80;99.90;;;;;;5058494;28;20292;-82
2022/10/23 00:40:41;;;;;;;14.07;8.95;;;12.80;99.90;;;;;;5053050;28;20025;-82
2022/10/23 00:43:17;;;;;;;21.85;9.85;;;12.80;99.90;;;;;;5057171;28;20032;-82
2022/10/23 00:45:42;;;;;;;11.07;9.15;;;12.80;99.90;;;;;;5056052;28;20021;-83
2022/10/23 00:48:08;;;;;;;16.00;9.38;;;12.80;99.90;;;;;;5056687;28;20036;-84
2022/10/23 00:50:34;;;;;;;11.95;9.07;;;12.80;99.90;;;;;;5055784;28;20025;-84
2022/10/23 00:53:03;;;;;;;14.05;9.43;;;13.40;99.90;;;;;;5055642;28;20083;-83
2022/10/23 00:55:30;;;;;;;11.63;9.73;;;12.90;99.90;;;;;;5055961;28;20110;-83
2022/10/23 00:57:56;;;;;;;14.45;8.80;;;12.80;99.90;;;;;;5055831;28;20025;-82
2022/10/23 01:00:27;;;;;;;14.35;10.30;;;12.90;99.90;;;;;;5055559;28;20051;-82
2022/10/23 01:02:55;;;;;;;13.48;9.88;;;12.80;99.90;;;;;;5055932;28;20021;-82
2022/10/23 01:05:29;;;;;;;16.73;9.38;;;12.80;99.90;;;;;;5056715;28;20036;-82
2022/10/23 01:08:09;;;;;;;24.10;10.38;;;12.80;99.90;;;;;;5058574;28;20040;-82
2022/10/23 01:10:41;;;;;;;15.45;9.35;;;12.80;99.90;;;;;;5056533;28;20123;-83
2022/10/23 01:13:15;;;;;;;18.20;9.80;;;12.80;99.90;;;;;;5057119;28;20044;-83
2022/10/23 01:15:48;;;;;;;16.83;10.15;;;12.80;99.90;;;;;;5055741;28;20108;-82
2022/10/23 01:18:24;;;;;;;20.67;10.48;;;12.80;99.90;;;;;;5057803;28;20028;-84
2022/10/23 01:21:16;;;;;;;17.67;11.25;;;12.80;99.90;;;;;;5060950;28;20071;-83
2022/10/23 01:24:11;;;;;;;15.98;10.63;;;12.80;99.90;;;;;;5055613;28;20037;-83
2022/10/23 01:26:46;;;;;;;13.40;9.98;;;12.70;99.90;;;;;;5056114;28;20068;-82
2022/10/23 01:29:19;;;;;;;15.13;9.15;;;12.70;99.90;;;;;;5058720;28;20025;-82
2022/10/23 01:32:02;;;;;;;13.02;9.65;;;12.70;99.90;;;;;;5055720;28;20100;-83
2022/10/23 01:34:38;;;;;;;15.10;10.35;;;12.70;99.90;;;;;;5049253;28;20052;-84
2022/10/23 01:37:10;;;;;;;17.92;10.30;;;12.60;99.90;;;;;;5055688;28;20051;-83
2022/10/23 01:39:40;;;;;;;16.85;10.25;;;12.60;99.90;;;;;;5054760;28;20059;-82
2022/10/23 01:42:18;;;;;;;17.70;11.38;;;12.60;99.90;;;;;;5055781;28;20032;-82
2022/10/23 01:44:48;;;;;;;16.73;10.93;;;12.60;99.90;;;;;;5055427;28;20029;-84
2022/10/23 01:47:17;;;;;;;11.88;10.25;;;12.60;99.90;;;;;;5055193;28;20462;-82
2022/10/23 01:49:45;;;;;;;20.45;9.68;;;12.50;99.90;;;;;;5052658;28;20488;-82
2022/10/23 01:52:13;;;;;;;18.05;10.70;;;12.80;99.90;;;;;;5042489;28;20104;-81
2022/10/23 01:54:43;;;;;;;21.33;9.80;;;12.50;99.90;;;;;;5055481;28;20040;-83
2022/10/23 01:57:13;;;;;;;25.77;10.18;;;12.60;99.90;;;;;;5054319;28;20025;-83
2022/10/23 01:59:43;;;;;;;15.38;9.70;;;12.50;99.90;;;;;;5052308;28;20036;-83
2022/10/23 02:02:10;;;;;;;17.90;9.52;;;12.60;99.90;;;;;;5054926;28;20514;-83
2022/10/23 02:04:41;;;;;;;17.15;9.77;;;12.60;99.90;;;;;;5054570;28;20163;-84
2022/10/23 02:07:07;;;;;;;15.95;9.73;;;12.50;99.90;;;;;;5049329;28;20105;-82
2022/10/23 02:09:33;;;;;;;17.42;10.68;;;12.50;99.90;;;;;;5047025;28;20428;-82
2022/10/23 02:12:07;;;;;;;20.20;10.25;;;12.50;99.90;;;;;;5072309;28;20033;-84
2022/10/23 02:14:59;;;;;;;17.08;10.20;;;12.50;99.90;;;;;;5056649;28;20021;-82
2022/10/23 02:17:38;;;;;;;18.83;10.65;;;12.50;99.90;;;;;;5055583;28;20078;-84
2022/10/23 02:20:40;;;;;;;14.27;10.35;;;12.40;99.90;;;;;;5054130;28;20029;-83
2022/10/23 02:23:37;;;;;;;15.05;9.90;;;12.50;99.90;;;;;;5045120;28;20040;-84
2022/10/23 02:26:17;;;;;;;17.65;10.65;;;12.40;99.90;;;;;;5055087;28;20029;-83
2022/10/23 02:28:51;;;;;;;20.92;10.70;;;12.40;99.90;;;;;;5053398;28;20025;-83
2022/10/23 02:31:20;;;;;;;15.65;10.48;;;12.40;99.90;;;;;;5054196;28;20552;-84
2022/10/23 02:33:46;;;;;;;14.60;10.43;;;12.50;99.90;;;;;;5053501;28;20036;-83
2022/10/23 02:36:13;;;;;;;19.40;10.55;;;12.40;99.90;;;;;;5054313;28;20024;-83
2022/10/23 02:38:41;;;;;;;19.70;10.40;;;12.40;99.90;;;;;;5054309;28;20439;-83
2022/10/23 02:41:16;;;;;;;16.40;10.35;;;12.40;99.90;;;;;;5053814;28;20036;-83
2022/10/23 02:44:02;;;;;;;14.90;9.75;;;12.40;99.90;;;;;;5053992;28;20496;-83
2022/10/23 02:46:44;;;;;;;22.00;11.18;;;12.40;99.90;;;;;;5053725;28;20109;-83
2022/10/23 02:49:23;;;;;;;15.85;9.45;;;12.40;99.90;;;;;;5053315;28;20119;-83
2022/10/23 02:52:03;;;;;;;17.42;10.65;;;12.40;99.90;;;;;;5042028;28;20029;-83
2022/10/23 02:54:41;;;;;;;16.23;9.77;;;12.40;99.90;;;;;;5053859;28;20021;-82
2022/10/23 02:57:28;;;;;;;18.60;8.95;;;12.40;99.90;;;;;;5053594;28;20442;-81
2022/10/23 03:00:16;;;;;;;26.85;11.57;;;12.30;99.90;;;;;;5056531;28;20025;-84
2022/10/23 03:02:49;;;;;;;13.32;9.52;;;12.30;99.90;;;;;;5051811;28;20025;-83
2022/10/23 03:05:21;;;;;;;14.90;11.30;;;12.30;99.90;;;;;;5040635;28;20029;-83
2022/10/23 03:07:47;;;;;;;18.50;8.98;;;12.30;99.90;;;;;;5054001;28;20060;-83
2022/10/23 03:10:13;;;;;;;11.57;9.20;;;12.30;99.90;;;;;;5039282;28;20044;-81
2022/10/23 03:12:40;;;;;;;20.60;10.88;;;12.30;99.90;;;;;;5053784;28;20028;-83
2022/10/23 03:15:06;;;;;;;14.20;9.43;;;12.30;99.90;;;;;;5053500;28;20048;-82
2022/10/23 03:17:32;;;;;;;17.90;8.88;;;12.30;99.90;;;;;;5053109;28;20473;-83
2022/10/23 03:19:58;;;;;;;11.38;9.25;;;12.40;99.90;;;;;;5053933;28;20099;-82
2022/10/23 03:22:23;;;;;;;18.40;9.30;;;12.40;99.90;;;;;;5047088;28;20497;-82
2022/10/23 03:24:49;;;;;;;15.27;9.15;;;12.40;99.90;;;;;;5049609;28;20059;-82
2022/10/23 03:27:15;;;;;;;14.05;8.85;;;12.40;99.90;;;;;;5054841;28;20021;-83
2022/10/23 03:29:41;;;;;;;13.65;9.02;;;12.40;99.90;;;;;;5055048;28;20017;-84
2022/10/23 03:32:07;;;;;;;20.65;9.80;;;12.40;99.90;;;;;;5055053;28;20032;-83
2022/10/23 03:34:33;;;;;;;13.25;9.23;;;12.40;99.90;;;;;;5054279;28;20064;-82
2022/10/23 03:36:59;;;;;;;22.17;9.55;;;12.40;99.90;;;;;;5053454;28;20033;-83
2022/10/23 03:39:25;;;;;;;15.25;8.43;;;12.40;99.90;;;;;;5054351;28;20033;-83
2022/10/23 03:41:50;;;;;;;14.40;8.95;;;12.40;99.90;;;;;;5056442;28;20104;-83
2022/10/23 03:44:16;;;;;;;16.30;8.85;;;12.40;99.90;;;;;;5052906;28;20029;-82
2022/10/23 03:46:42;;;;;;;13.40;8.30;;;12.30;99.90;;;;;;5040752;28;20056;-83
2022/10/23 03:49:07;;;;;;;13.00;9.73;;;12.40;99.90;;;;;;5053416;28;20029;-82
2022/10/23 03:51:33;;;;;;;18.40;8.35;;;12.90;99.90;;;;;;5053287;28;20021;-81
2022/10/23 03:53:58;;;;;;;18.52;9.02;;;12.40;99.90;;;;;;5055616;28;20117;-82
2022/10/23 03:56:24;;;;;;;15.50;9.30;;;12.40;99.90;;;;;;5055153;28;20013;-82
2022/10/23 03:58:49;;;;;;;15.10;8.93;;;12.40;99.90;;;;;;5060590;28;20496;-83
2022/10/23 04:01:15;;;;;;;19.75;10.02;;;12.40;99.90;;;;;;5068731;28;20021;-83
2022/10/23 04:03:41;;;;;;;17.70;9.93;;;12.40;99.90;;;;;;5059311;28;20047;-82
2022/10/23 04:06:06;;;;;;;19.70;11.13;;;12.40;99.90;;;;;;5057196;28;20029;-83
2022/10/23 04:08:32;;;;;;;19.67;10.32;;;12.40;99.90;;;;;;5056264;28;20028;-83
2022/10/23 04:10:57;;;;;;;19.98;11.05;;;12.40;99.90;;;;;;5057847;28;20029;-82
2022/10/23 04:13:23;;;;;;;18.33;10.02;;;12.50;99.90;;;;;;5056546;28;20083;-82
2022/10/23 04:15:51;;;;;;;14.60;9.00;;;12.40;99.90;;;;;;5058027;28;20459;-81
2022/10/23 04:18:17;;;;;;;19.88;10.10;;;12.50;99.90;;;;;;5058812;28;20021;-82
2022/10/23 04:20:42;;;;;;;18.88;9.95;;;12.50;99.90;;;;;;5057415;28;20056;-82
2022/10/23 04:23:08;;;;;;;21.15;9.00;;;12.60;99.90;;;;;;5069539;28;20020;-83
2022/10/23 04:25:33;;;;;;;16.50;9.48;;;12.60;99.90;;;;;;5079306;28;20013;-83
2022/10/23 04:27:59;;;;;;;22.08;9.80;;;12.60;99.90;;;;;;5079316;28;20013;-83
2022/10/23 04:30:24;;;;;;;14.48;10.35;;;12.70;99.90;;;;;;5079234;28;20021;-83
2022/10/23 04:32:50;;;;;;;18.88;10.88;;;12.70;99.90;;;;;;5079324;28;20025;-82
2022/10/23 04:35:17;;;;;;;17.00;9.77;;;12.70;99.90;;;;;;5078325;28;20015;-83
2022/10/23 04:37:44;;;;;;;22.52;11.05;;;12.70;99.90;;;;;;5071868;28;20021;-83
2022/10/23 04:40:10;;;;;;;17.35;9.68;;;12.70;99.90;;;;;;5061783;28;20477;-82
2022/10/23 04:42:35;;;;;;;20.73;9.40;;;12.60;99.90;;;;;;5060472;28;20021;-82
2022/10/23 04:45:01;;;;;;;10.80;9.52;;;12.70;99.90;;;;;;5057189;28;20032;-84
2022/10/23 04:47:26;;;;;;;18.52;9.63;;;12.70;99.90;;;;;;5055425;28;20026;-82
2022/10/23 04:49:52;;;;;;;12.65;8.70;;;12.60;99.90;;;;;;5056394;28;20445;-83
2022/10/23 04:52:18;;;;;;;18.48;9.98;;;12.60;99.90;;;;;;5056461;28;20103;-83
2022/10/23 04:54:43;;;;;;;17.33;9.88;;;12.70;99.90;;;;;;5055764;28;20112;-81
2022/10/23 04:57:09;;;;;;;18.65;9.60;;;12.70;99.90;;;;;;5055184;28;20025;-80
2022/10/23 04:59:34;;;;;;;17.55;9.80;;;12.70;99.90;;;;;;5055831;28;20549;-83
2022/10/23 05:02:00;;;;;;;15.15;9.43;;;12.70;99.90;;;;;;5055740;28;20021;-83
2022/10/23 05:04:25;;;;;;;16.20;9.27;;;12.70;99.90;;;;;;5057507;28;20029;-84
2022/10/23 05:06:51;;;;;;;15.65;8.30;;;12.60;99.90;;;;;;5055866;28;20028;-82
2022/10/23 05:09:17;;;;;;;14.30;8.80;;;12.60;99.90;;;;;;5054582;28;20044;-83
2022/10/23 05:11:42;;;;;;;12.20;8.43;;;12.60;99.90;;;;;;5054858;28;20013;-83
2022/10/23 05:14:08;;;;;;;20.63;9.25;;;12.60;99.90;;;;;;5058497;28;20029;-83
2022/10/23 05:16:52;;;;;;;17.73;9.02;;;12.70;99.90;;;;;;5055521;28;20029;-84
2022/10/23 05:19:21;;;;;;;13.25;8.15;;;12.70;99.90;;;;;;5055657;28;20079;-84
2022/10/23 05:21:54;;;;;;;13.05;8.40;;;12.70;99.90;;;;;;5054986;28;20075;-82
2022/10/23 05:24:20;;;;;;;12.63;8.63;;;12.70;99.90;;;;;;5054477;28;20464;-83
2022/10/23 05:26:46;;;;;;;15.27;9.32;;;12.70;99.90;;;;;;5054433;28;20048;-83
2022/10/23 05:29:12;;;;;;;16.33;9.45;;;12.70;99.90;;;;;;5055268;28;20485;-83
2022/10/23 05:31:38;;;;;;;12.02;9.82;;;12.70;99.90;;;;;;5053530;28;20100;-83
2022/10/23 05:34:04;;;;;;;20.80;9.98;;;12.60;99.90;;;;;;5046204;28;20025;-81
2022/10/23 05:36:30;;;;;;;16.60;9.95;;;12.70;99.90;;;;;;5054798;28;20053;-81
2022/10/23 05:38:56;;;;;;;15.65;8.77;;;12.60;99.90;;;;;;5049703;28;20385;-82
2022/10/23 05:41:21;;;;;;;17.27;9.90;;;12.70;99.90;;;;;;5054738;28;20017;-82
2022/10/23 05:43:47;;;;;;;13.13;10.43;;;12.70;99.90;;;;;;5051831;28;20472;-82
2022/10/23 05:46:12;;;;;;;13.52;10.50;;;12.60;99.90;;;;;;5054621;28;20021;-80
2022/10/23 05:48:38;;;;;;;19.83;10.32;;;12.70;99.90;;;;;;5072083;28;20067;-81
2022/10/23 05:51:05;;;;;;;16.45;9.52;;;12.70;99.90;;;;;;5055889;28;20013;-82
2022/10/23 05:53:31;;;;;;;20.00;10.07;;;12.70;99.90;;;;;;5053615;28;20580;-81
2022/10/23 05:56:03;;;;;;;13.10;9.25;;;12.60;99.90;;;;;;5044207;28;20061;-82
2022/10/23 05:58:29;;;;;;;11.75;8.90;;;12.70;99.90;;;;;;5048553;28;20090;-82
2022/10/23 06:00:55;;;;;;;14.32;9.90;;;12.60;99.90;;;;;;5049489;28;20017;-82
2022/10/23 06:03:20;;;;;;;12.82;9.00;;;12.60;99.90;;;;;;5050502;28;20033;-81
2022/10/23 06:05:52;;;;;;;15.15;10.10;;;12.60;99.90;;;;;;5051587;28;20017;-82
2022/10/23 06:08:17;;;;;;;11.80;9.55;;;12.60;99.90;;;;;;5052131;28;20396;-82
2022/10/23 06:10:43;;;;;;;12.60;8.48;;;12.60;99.90;;;;;;5053004;28;20025;-82
2022/10/23 06:13:09;;;;;;;12.65;9.65;;;12.70;99.90;;;;;;5051181;28;20021;-82
2022/10/23 06:15:35;;;;;;;13.65;9.60;;;12.60;99.90;;;;;;5050867;28;20028;-80
2022/10/23 06:18:02;;;;;;;13.82;9.18;;;12.60;99.90;;;;;;5052843;28;20585;-82
2022/10/23 06:20:28;;;;;;;12.35;9.65;;;12.60;99.90;;;;;;5051910;28;20067;-81
2022/10/23 06:22:53;;;;;;;16.85;9.20;;;12.60;99.90;;;;;;5052742;28;20093;-82
2022/10/23 06:25:19;;;;;;;15.95;8.82;;;12.60;99.90;;;;;;5052297;28;20031;-82
2022/10/23 06:27:44;;;;;;;12.73;9.68;;;12.60;99.90;;;;;;5052190;28;20028;-82
2022/10/23 06:30:10;;;;;;;15.00;9.15;;;12.60;99.90;;;;;;5053522;28;20492;-82
2022/10/23 06:32:36;;;;;;;20.17;9.82;;;12.50;99.90;;;;;;5053213;28;20033;-83
2022/10/23 06:35:02;;;;;;;16.45;9.80;;;12.60;99.90;;;;;;5050268;28;20025;-82
2022/10/23 06:37:28;;;;;;;14.63;9.40;;;12.60;99.90;;;;;;5054153;28;20017;-82
2022/10/23 06:39:53;;;;;;;14.45;9.65;;;12.60;99.90;;;;;;5053262;28;20028;-82
2022/10/23 06:42:19;;;;;;;16.45;9.40;;;12.60;99.90;;;;;;5049417;28;20553;-83
2022/10/23 06:44:44;;;;;;;17.02;9.80;;;12.60;99.90;;;;;;5049917;28;20033;-83
2022/10/23 06:47:13;;;;;;;13.30;8.93;;;12.60;99.90;;;;;;5042571;28;20482;-84
2022/10/23 06:49:39;;;;;;;14.60;9.10;;;12.60;99.90;;;;;;5043851;28;20060;-83
2022/10/23 06:52:04;;;;;;;13.07;8.52;;;12.60;99.90;;;;;;5043172;28;20040;-83
2022/10/23 06:54:30;;;;;;;13.48;10.00;;;12.60;99.90;;;;;;5054801;28;20039;-80
2022/10/23 06:56:55;;;;;;;17.05;9.88;;;12.60;99.90;;;;;;5052967;28;20028;-83
2022/10/23 06:59:21;;;;;;;15.48;9.15;;;12.70;99.90;;;;;;5054302;28;20035;-83
2022/10/23 07:01:48;;;;;;;17.48;9.38;;;12.60;99.90;;;;;;5056039;28;20025;-84
2022/10/23 07:04:14;;;;;;;16.10;8.68;;;12.70;99.90;;;;;;5052218;28;20040;-83
2022/10/23 07:06:40;;;;;;;20.73;9.20;;;12.70;99.90;;;;;;5048043;28;20373;-84
2022/10/23 07:09:06;;;;;;;18.95;10.00;;;12.70;99.90;;;;;;5046475;28;20462;-84
2022/10/23 07:11:32;;;;;;;15.85;10.00;;;12.70;99.90;;;;;;5045831;28;20025;-83
2022/10/23 07:13:57;;;;;;;14.02;9.25;;;12.80;99.90;;;;;;5050593;28;20098;-83
2022/10/23 07:16:23;;;;;;;11.63;9.60;;;12.80;99.90;;;;;;5048736;28;20074;-83
2022/10/23 07:18:57;;;;;;;10.68;9.63;;;12.80;99.90;;;;;;5052033;28;20078;-83
2022/10/23 07:21:24;;;;;;;17.48;9.95;;;12.90;99.90;;;;;;5047015;28;20072;-83
2022/10/23 07:23:49;;;;;;;14.00;8.32;;;12.90;99.90;;;;;;5048502;28;20061;-83
2022/10/23 07:26:15;;;;;;;11.32;8.73;;;13.00;99.90;;;;;;5052312;28;20048;-84
2022/10/23 07:28:43;;;;;;;13.68;9.10;;;13.00;99.90;;;;;;5052147;28;20103;-83
2022/10/23 07:31:09;;;;;;;17.25;9.57;;;13.00;99.90;;;;;;5056515;28;20032;-83
2022/10/23 07:33:35;;;;;;;14.43;9.52;;;13.10;99.90;;;;;;5058299;28;20033;-83
2022/10/23 07:36:03;;;;;;;12.95;8.27;;;13.10;99.90;;;;;;5068114;28;20026;-82
2022/10/23 07:38:29;;;;;;;12.30;8.90;;;13.10;99.90;;;;;;5055889;28;20419;-85
2022/10/23 07:40:57;;;;;;;15.10;9.63;;;13.10;99.90;;;;;;5058013;28;20024;-84
2022/10/23 07:43:22;;;;;;;10.98;9.18;;;13.10;99.90;;;;;;5057420;28;20036;-82
2022/10/23 07:45:48;;;;;;;12.32;9.75;;;13.10;99.90;;;;;;5057124;28;20021;-82
2022/10/23 07:48:15;;;;;;;10.50;8.38;;;13.20;99.90;;;;;;5057186;28;20032;-80
2022/10/23 07:50:40;;;;;;;18.35;9.57;;;13.20;99.90;;;;;;5066706;28;20025;-81
2022/10/23 07:53:06;;;;;;;12.68;8.60;;;13.30;99.90;;;;;;5057277;28;20120;-82
2022/10/23 07:55:31;;;;;;;14.82;9.10;;;13.30;99.90;;;;;;5057127;28;20021;-83
2022/10/23 07:57:57;;;;;;;10.95;7.68;;;13.40;99.90;;;;;;5059548;28;20708;-80
2022/10/23 08:00:23;;;;;;;14.27;8.45;;;13.40;99.90;;;;;;5064730;28;20029;-82
2022/10/23 08:02:48;;;;;;;13.77;8.35;;;13.40;99.90;;;;;;5058383;28;20473;-78
2022/10/23 08:05:20;;;;;;;15.75;8.90;;;13.50;99.90;;;;;;5056161;28;20044;-84
2022/10/23 08:07:45;;;;;;;26.38;10.48;;;13.50;99.90;;;;;;5056611;28;20021;-81
2022/10/23 08:10:11;;;;;;;10.57;9.20;;;13.50;99.90;;;;;;5058744;28;20024;-82
2022/10/23 08:12:37;;;;;;;12.90;9.10;;;13.60;99.90;;;;;;5059014;28;20031;-81
2022/10/23 08:15:03;;;;;;;17.50;9.32;;;13.60;99.90;;;;;;5057227;28;20538;-81
2022/10/23 08:17:28;;;;;;;13.35;8.75;;;13.60;99.90;;;;;;5063134;28;20021;-81
2022/10/23 08:19:54;;;;;;;16.88;9.40;;;14.40;99.90;;;;;;5074256;28;20100;-80
2022/10/23 08:22:20;;;;;;;14.02;8.65;;;13.70;99.90;;;;;;5071529;28;20465;-80
2022/10/23 08:24:45;;;;;;;14.40;8.85;;;13.70;99.90;;;;;;5070968;28;20071;-80
2022/10/23 08:27:11;;;;;;;15.02;9.07;;;13.70;99.90;;;;;;5068899;28;20025;-82
2022/10/23 08:29:36;;;;;;;13.68;9.10;;;13.70;99.90;;;;;;5072312;28;20136;-80
2022/10/23 08:32:05;;;;;;;11.77;8.63;;;13.70;99.90;;;;;;5070752;28;20025;-80
2022/10/23 08:34:33;;;;;;;14.95;8.85;;;13.80;99.90;;;;;;5059624;28;20033;-78
2022/10/23 08:37:02;;;;;;;17.75;9.90;;;13.80;99.90;;;;;;5059718;28;20028;-81
2022/10/23 08:39:28;;;;;;;14.35;8.48;;;13.80;99.90;;;;;;5053416;28;20422;-82
2022/10/23 08:41:53;;;;;;;13.80;8.73;;;13.90;99.90;;;;;;5053203;28;20021;-81
2022/10/23 08:44:44;;;;;;;12.10;9.23;;;14.00;99.90;;;;;;5057212;28;20036;-80
2022/10/23 08:47:32;;;;;;;11.70;7.93;;;14.00;99.90;;;;;;5054509;28;20035;-80
2022/10/23 08:50:24;;;;;;;15.40;8.98;;;14.00;99.90;;;;;;5055160;28;20028;-81
2022/10/23 08:52:59;;;;;;;15.13;8.63;;;14.10;99.90;;;;;;5054006;28;20437;-80
2022/10/23 08:55:28;;;;;;;11.32;8.05;;;14.20;99.90;;;;;;5053729;28;20025;-81
2022/10/23 08:58:06;;;;;;;10.70;8.70;;;14.10;99.90;;;;;;5056386;28;20469;-81
2022/10/23 09:00:51;;;;;;;9.82;8.10;;;14.20;99.90;;;;;;5037769;28;20109;-81
2022/10/23 09:03:17;;;;;;;9.85;7.20;;;14.20;99.90;;;;;;5053320;28;20447;-79
2022/10/23 09:06:02;;;;;;;11.80;7.68;;;14.20;99.90;;;;;;5051385;28;20113;-81
2022/10/23 09:09:07;;;;;;;11.77;8.38;;;14.20;99.90;;;;;;5059445;28;20033;-79
2022/10/23 09:12:02;;;;;;;9.65;8.60;;;14.20;99.90;;;;;;5053736;28;20471;-80
2022/10/23 09:15:05;;;;;;;9.82;8.07;;;14.20;99.90;;;;;;5046869;28;20037;-80
2022/10/23 09:17:34;;;;;;;8.88;7.97;;;14.20;99.90;;;;;;5054249;28;20029;-80
2022/10/23 09:20:23;;;;;;;13.30;8.35;;;14.20;99.90;;;;;;5052657;28;20064;-81
2022/10/23 09:22:58;;;;;;;9.63;8.38;;;14.20;99.90;;;;;;5047492;28;20024;-80
2022/10/23 09:25:26;;;;;;;21.50;8.68;;;14.30;99.90;;;;;;5066463;28;20033;-80
2022/10/23 09:27:54;;;;;;;10.20;8.40;;;14.30;99.90;;;;;;5047188;28;20025;-79
2022/10/23 09:30:27;;;;;;;9.60;7.50;;;14.20;99.90;;;;;;5048260;28;20033;-80
2022/10/23 09:32:52;;;;;;;10.77;8.32;;;14.20;99.90;;;;;;5050836;28;20025;-79
2022/10/23 09:35:27;;;;;;;12.70;7.65;;;14.20;99.90;;;;;;5048136;28;20025;-81
2022/10/23 09:37:53;;;;;;;12.90;8.45;;;14.30;99.90;;;;;;5051570;28;20021;-80
2022/10/23 09:40:29;;;;;;;13.20;8.43;;;14.30;99.90;;;;;;5053784;28;20071;-79
2022/10/23 09:42:58;;;;;;;11.80;7.65;;;14.40;99.90;;;;;;5053125;28;20029;-79
2022/10/23 09:45:31;;;;;;;17.33;8.80;;;14.40;99.90;;;;;;5049613;28;20039;-82
2022/10/23 09:48:05;;;;;;;10.90;8.18;;;14.40;99.90;;;;;;5053414;28;20500;-80
2022/10/23 09:50:33;;;;;;;16.63;8.55;;;14.50;99.90;;;;;;5051393;28;20072;-77
2022/10/23 09:52:59;;;;;;;17.05;9.05;;;14.50;99.90;;;;;;5046962;28;20021;-77
2022/10/23 09:55:26;;;;;;;13.02;8.95;;;14.60;99.90;;;;;;5047807;28;20086;-77
2022/10/23 09:57:54;;;;;;;10.93;8.40;;;14.60;99.90;;;;;;5050494;28;20021;-77
2022/10/23 10:00:25;;;;;;;9.65;8.82;;;14.70;99.90;;;;;;5049148;28;20116;-77
2022/10/23 10:03:00;;;;;;;9.40;8.15;;;14.70;99.90;;;;;;5038097;28;20100;-77
2022/10/23 10:05:33;;;;;;;13.00;8.60;;;14.80;99.90;;;;;;5036961;28;20033;-77
2022/10/23 10:08:27;;;;;;;10.95;8.57;;;14.80;99.90;;;;;;5037233;28;20492;-79
2022/10/23 10:10:59;;;;;;;9.40;8.50;;;14.80;99.90;;;;;;5035898;28;20064;-77
2022/10/23 10:13:36;;;;;;;13.85;8.48;;;14.90;99.90;;;;;;5045967;28;20493;-78
2022/10/23 10:16:07;;;;;;;11.25;8.75;;;14.90;99.90;;;;;;5050834;28;20021;-78
2022/10/23 10:18:46;;;;;;;11.23;7.93;;;14.90;99.90;;;;;;5051482;28;20024;-78
2022/10/23 10:21:23;;;;;;;10.85;7.68;;;14.90;99.90;;;;;;5048962;28;20045;-78
2022/10/23 10:24:09;;;;;;;9.65;8.32;;;15.00;99.90;;;;;;5050183;28;20611;-78
2022/10/23 10:26:50;;;;;;;9.82;7.95;;;15.10;99.90;;;;;;5047720;28;20036;-77
2022/10/23 10:29:47;;;;;;;8.05;7.22;;;15.20;99.90;;;;;;5047257;28;20385;-79
2022/10/23 10:32:15;;;;;;;12.25;8.10;;;15.30;99.90;;;;;;5048833;28;20036;-77
2022/10/23 10:34:57;;;;;;;12.02;7.25;;;15.40;99.90;;;;;;5047961;28;20033;-76
2022/10/23 10:38:03;;;;;;;12.60;8.07;;;15.40;99.90;;;;;;5048127;28;20429;-77
2022/10/23 10:40:40;;;;;;;11.93;7.15;;;15.40;99.90;;;;;;5046546;28;20063;-78
2022/10/23 10:43:25;;;;;;;14.45;7.90;;;15.40;99.90;;;;;;5052630;28;20029;-80
2022/10/23 10:46:17;;;;;;;10.68;8.30;;;15.50;99.90;;;;;;5049961;28;20021;-80
2022/10/23 10:48:58;;;;;;;10.15;7.97;;;15.50;99.90;;;;;;5051356;28;20104;-78
2022/10/23 10:51:29;;;;;;;9.18;7.75;;;15.60;99.90;;;;;;5050401;28;20489;-78
2022/10/23 10:54:19;;;;;;;8.90;7.35;;;15.60;99.90;;;;;;5061918;28;20025;-78
2022/10/23 10:56:47;;;;;;;7.45;6.75;;;15.70;99.90;;;;;;5053465;28;20112;-78
2022/10/23 10:59:20;;;;;;;9.18;6.68;;;15.80;99.90;;;;;;5050237;28;20029;-78
2022/10/23 11:01:58;;;;;;;14.95;7.60;;;15.80;99.90;;;;;;5046841;28;20031;-77
2022/10/23 11:04:38;;;;;;;12.30;7.50;;;15.90;99.90;;;;;;5050158;28;20037;-77
2022/10/23 11:07:11;;;;;;;12.48;7.30;;;16.00;99.90;;;;;;5048282;28;20377;-78
2022/10/23 11:09:37;;;;;;;7.50;6.70;;;16.10;99.90;;;;;;5053215;28;20032;-78
2022/10/23 11:12:03;;;;;;;10.23;6.97;;;16.20;99.90;;;;;;5064675;28;20025;-79
2022/10/23 11:14:32;;;;;;;8.13;6.65;;;16.20;99.90;;;;;;5062493;28;20029;-79
2022/10/23 11:17:28;;;;;;;7.18;6.28;;;16.30;99.90;;;;;;5055913;28;20025;-75
2022/10/23 11:20:00;;;;;;;9.75;6.13;;;16.40;99.90;;;;;;5053736;28;20099;-78
2022/10/23 11:23:00;;;;;;;13.57;6.85;;;16.50;99.90;;;;;;5051843;28;20108;-78
2022/10/23 11:26:02;;;;;;;7.55;6.75;;;16.60;99.90;;;;;;5052725;28;20028;-75
2022/10/23 11:28:50;;;;;;;8.63;5.53;;;16.80;99.90;;;;;;5053835;28;20029;-82
2022/10/23 11:31:37;;;;;;;6.65;5.95;;;16.80;99.90;;;;;;5054170;28;20024;-78
2022/10/23 11:34:30;;;;;;;7.90;6.18;;;16.90;99.90;;;;;;5052580;28;20029;-79
2022/10/23 11:37:00;;;;;;;5.93;5.35;;;17.00;99.90;;;;;;5052718;28;20029;-78
2022/10/23 11:39:31;;;;;;;9.20;5.60;;;17.10;99.90;;;;;;5049697;28;20013;-79
2022/10/23 11:42:10;;;;;;;7.07;5.65;;;17.20;99.90;;;;;;5055521;28;20427;-79
2022/10/23 11:44:40;;;;;;;8.95;5.03;;;17.20;99.90;;;;;;5054725;28;20028;-78
2022/10/23 11:47:30;;;;;;;15.30;6.00;;;17.30;99.90;;;;;;5055114;28;20025;-79
2022/10/23 11:50:05;;;;;;;;;;;17.40;99.90;;;;;;5050254;28;20548;-79
2022/10/23 11:52:30;;;;;;;8.30;5.10;;;17.40;99.90;;;;;;5054318;28;20010;-80
2022/10/23 11:55:14;;;;;;;5.90;4.53;;;17.50;99.90;;;;;;5054054;28;20021;-80
2022/10/23 11:57:40;;;;;;;11.90;4.88;;;17.50;99.90;;;;;;5052994;28;20369;-79
2022/10/23 12:00:20;;;;;;;8.02;4.70;;;17.50;99.90;;;;;;5052483;28;20075;-79
2022/10/23 12:02:51;;;;;;;8.52;4.57;;;17.60;99.90;;;;;;5054182;28;20029;-78
2022/10/23 12:05:33;;;;;;;11.63;4.35;;;17.60;99.90;;;;;;5051404;28;20071;-79
2022/10/23 12:08:01;;;;;;;7.60;4.20;;;17.50;99.90;;;;;;5055094;28;20103;-79
2022/10/23 12:10:34;;;;;;;6.70;4.00;;;17.60;99.90;;;;;;5055070;28;20054;-77
2022/10/23 12:13:03;;;;;;;6.40;4.22;;;17.60;99.90;;;;;;5054008;28;20023;-78
2022/10/23 12:15:29;;;;;;;5.93;3.45;;;17.70;99.90;;;;;;5057148;28;20040;-79
2022/10/23 12:18:11;;;;;;;9.13;4.32;;;17.70;99.90;;;;;;5052628;28;20037;-79
2022/10/23 12:20:46;;;;;;;10.15;4.05;;;17.80;99.90;;;;;;5062066;28;20053;-79
2022/10/23 12:23:38;;;;;;;10.75;4.10;;;18.20;99.90;;;;;;5076347;28;20032;-78
2022/10/23 12:26:15;;;;;;;6.43;4.47;;;17.90;99.90;;;;;;5055980;28;20084;-80
2022/10/23 12:28:55;;;;;;;4.75;4.18;;;17.90;99.90;;;;;;5073083;28;20080;-78
2022/10/23 12:31:45;;;;;;;11.27;5.13;;;18.00;99.90;;;;;;5077106;28;20029;-78
2022/10/23 12:34:38;;;;;;;7.75;4.47;;;18.00;99.90;;;;;;5074922;28;20017;-79
2022/10/23 12:37:19;;;;;;;9.68;4.57;;;18.10;99.90;;;;;;5060544;28;20017;-77
2022/10/23 12:39:50;;;;;;;;;;;18.10;99.90;;;;;;5056200;28;20119;-78
2022/10/23 12:42:22;;;;;;;6.38;4.00;;;18.10;99.90;;;;;;5056349;28;20306;-78
2022/10/23 12:45:12;;;;;;;5.30;3.75;;;18.20;99.90;;;;;;5052993;28;20033;-78
2022/10/23 12:47:38;;;;;;;6.57;3.28;;;18.30;99.90;;;;;;5054058;28;20049;-78
2022/10/23 12:50:17;;;;;;;4.00;3.53;;;18.30;99.90;;;;;;5045764;28;20083;-80
2022/10/23 12:52:54;;;;;;;4.80;3.45;;;18.30;99.90;;;;;;5054013;28;20025;-80
2022/10/23 12:55:20;;;;;;;6.75;3.42;;;18.30;99.90;;;;;;5052654;28;20380;-79
2022/10/23 12:57:46;;;;;;;5.63;3.80;;;18.30;99.90;;;;;;5054076;28;20048;-79
2022/10/23 13:00:19;;;;;;;7.60;3.60;;;18.50;99.90;;;;;;5065130;28;20036;-79